sensor_id;sensor_type;location;lat;lon;timestamp;temperature;humidity
6724;DHT22;3399;52.530;13.304;2023-06-04T00:00:36;14.10;50.30
6724;DHT22;3399;52.530;13.304;2023-06-04T00:03:01;13.90;49.60
6724;DHT22;3399;52.530;13.304;2023-06-04T00:05:27;13.90;49.80
6724;DHT22;3399;52.530;13.304;2023-06-04T00:07:52;13.90;50.00
6724;DHT22;3399;52.530;13.304;2023-06-04T00:10:18;13.70;50.00
6724;DHT22;3399;52.530;13.304;2023-06-04T00:12:43;13.80;50.90
6724;DHT22;3399;52.530;13.304;2023-06-04T00:15:09;13.70;51.10
6724;DHT22;3399;52.530;13.304;2023-06-04T00:17:35;13.60;50.80
6724;DHT22;3399;52.530;13.304;2023-06-04T00:20:01;13.70;51.20
6724;DHT22;3399;52.530;13.304;2023-06-04T00:22:26;13.50;50.80
6724;DHT22;3399;52.530;13.304;2023-06-04T00:24:52;13.50;51.00
6724;DHT22;3399;52.530;13.304;2023-06-04T00:27:18;13.40;51.90
6724;DHT22;3399;52.530;13.304;2023-06-04T00:29:43;13.50;53.40
6724;DHT22;3399;52.530;13.304;2023-06-04T00:32:09;13.30;52.10
6724;DHT22;3399;52.530;13.304;2023-06-04T00:34:35;13.20;52.30
6724;DHT22;3399;52.530;13.304;2023-06-04T00:37:00;13.30;53.20
6724;DHT22;3399;52.530;13.304;2023-06-04T00:39:29;13.30;53.30
6724;DHT22;3399;52.530;13.304;2023-06-04T00:41:55;13.30;54.30
6724;DHT22;3399;52.530;13.304;2023-06-04T00:44:20;13.30;54.00
6724;DHT22;3399;52.530;13.304;2023-06-04T00:46:48;13.20;53.10
6724;DHT22;3399;52.530;13.304;2023-06-04T00:49:15;13.10;53.30
6724;DHT22;3399;52.530;13.304;2023-06-04T00:51:40;13.00;53.10
6724;DHT22;3399;52.530;13.304;2023-06-04T00:54:07;12.80;53.40
6724;DHT22;3399;52.530;13.304;2023-06-04T00:56:35;12.60;53.80
6724;DHT22;3399;52.530;13.304;2023-06-04T00:59:02;12.60;54.50
6724;DHT22;3399;52.530;13.304;2023-06-04T01:04:23;12.70;55.20
6724;DHT22;3399;52.530;13.304;2023-06-04T01:06:52;12.70;55.80
6724;DHT22;3399;52.530;13.304;2023-06-04T01:09:18;12.60;55.60
6724;DHT22;3399;52.530;13.304;2023-06-04T01:11:44;12.50;55.90
6724;DHT22;3399;52.530;13.304;2023-06-04T01:14:10;12.60;55.50
6724;DHT22;3399;52.530;13.304;2023-06-04T01:16:44;12.50;55.80
6724;DHT22;3399;52.530;13.304;2023-06-04T01:22:10;12.60;55.70
6724;DHT22;3399;52.530;13.304;2023-06-04T01:24:45;12.40;56.00
6724;DHT22;3399;52.530;13.304;2023-06-04T01:27:16;12.30;56.50
6724;DHT22;3399;52.530;13.304;2023-06-04T01:29:42;12.20;56.90
6724;DHT22;3399;52.530;13.304;2023-06-04T01:32:08;12.20;57.00
6724;DHT22;3399;52.530;13.304;2023-06-04T01:34:44;12.20;57.40
6724;DHT22;3399;52.530;13.304;2023-06-04T01:37:10;12.20;57.50
6724;DHT22;3399;52.530;13.304;2023-06-04T01:39:36;12.20;57.40
6724;DHT22;3399;52.530;13.304;2023-06-04T01:42:02;12.20;57.50
6724;DHT22;3399;52.530;13.304;2023-06-04T01:44:27;12.10;57.90
6724;DHT22;3399;52.530;13.304;2023-06-04T01:46:53;11.80;58.90
6724;DHT22;3399;52.530;13.304;2023-06-04T01:49:18;11.70;59.50
6724;DHT22;3399;52.530;13.304;2023-06-04T01:51:44;11.90;59.80
6724;DHT22;3399;52.530;13.304;2023-06-04T01:54:09;11.80;59.60
6724;DHT22;3399;52.530;13.304;2023-06-04T01:56:35;11.80;60.30
6724;DHT22;3399;52.530;13.304;2023-06-04T01:59:00;11.80;60.20
6724;DHT22;3399;52.530;13.304;2023-06-04T02:01:26;11.70;60.50
6724;DHT22;3399;52.530;13.304;2023-06-04T02:03:52;11.80;61.50
6724;DHT22;3399;52.530;13.304;2023-06-04T02:06:17;11.80;60.70
6724;DHT22;3399;52.530;13.304;2023-06-04T02:08:43;11.70;60.90
6724;DHT22;3399;52.530;13.304;2023-06-04T02:11:08;11.70;61.40
6724;DHT22;3399;52.530;13.304;2023-06-04T02:13:34;11.50;62.00
6724;DHT22;3399;52.530;13.304;2023-06-04T02:16:00;11.50;62.30
6724;DHT22;3399;52.530;13.304;2023-06-04T02:18:25;11.50;62.80
6724;DHT22;3399;52.530;13.304;2023-06-04T02:20:51;11.40;63.40
6724;DHT22;3399;52.530;13.304;2023-06-04T02:23:18;11.40;63.60
6724;DHT22;3399;52.530;13.304;2023-06-04T02:25:45;11.30;63.90
6724;DHT22;3399;52.530;13.304;2023-06-04T02:28:11;11.40;64.30
6724;DHT22;3399;52.530;13.304;2023-06-04T02:30:36;11.20;64.20
6724;DHT22;3399;52.530;13.304;2023-06-04T02:33:02;11.30;64.60
6724;DHT22;3399;52.530;13.304;2023-06-04T02:35:29;11.20;65.00
6724;DHT22;3399;52.530;13.304;2023-06-04T02:37:55;11.20;65.50
6724;DHT22;3399;52.530;13.304;2023-06-04T02:40:25;11.30;65.50
6724;DHT22;3399;52.530;13.304;2023-06-04T02:42:52;11.40;65.10
6724;DHT22;3399;52.530;13.304;2023-06-04T02:45:18;11.40;65.40
6724;DHT22;3399;52.530;13.304;2023-06-04T02:47:43;11.20;66.30
6724;DHT22;3399;52.530;13.304;2023-06-04T02:50:09;11.20;67.10
6724;DHT22;3399;52.530;13.304;2023-06-04T02:52:34;11.10;67.30
6724;DHT22;3399;52.530;13.304;2023-06-04T02:55:03;11.10;67.40
6724;DHT22;3399;52.530;13.304;2023-06-04T02:57:29;11.00;67.70
6724;DHT22;3399;52.530;13.304;2023-06-04T02:59:55;10.90;68.20
6724;DHT22;3399;52.530;13.304;2023-06-04T03:02:21;11.00;68.40
6724;DHT22;3399;52.530;13.304;2023-06-04T03:04:46;10.80;69.10
6724;DHT22;3399;52.530;13.304;2023-06-04T03:07:13;10.80;70.00
6724;DHT22;3399;52.530;13.304;2023-06-04T03:09:38;10.90;70.30
6724;DHT22;3399;52.530;13.304;2023-06-04T03:12:04;11.00;69.90
6724;DHT22;3399;52.530;13.304;2023-06-04T03:14:31;10.90;70.20
6724;DHT22;3399;52.530;13.304;2023-06-04T03:17:02;10.90;71.40
6724;DHT22;3399;52.530;13.304;2023-06-04T03:19:34;11.00;71.90
6724;DHT22;3399;52.530;13.304;2023-06-04T03:22:00;11.00;72.30
6724;DHT22;3399;52.530;13.304;2023-06-04T03:24:26;10.90;72.30
6724;DHT22;3399;52.530;13.304;2023-06-04T03:26:51;10.90;72.60
6724;DHT22;3399;52.530;13.304;2023-06-04T03:29:17;10.90;74.40
6724;DHT22;3399;52.530;13.304;2023-06-04T03:31:44;11.00;72.90
6724;DHT22;3399;52.530;13.304;2023-06-04T03:34:10;10.90;73.10
6724;DHT22;3399;52.530;13.304;2023-06-04T03:36:35;10.90;73.10
6724;DHT22;3399;52.530;13.304;2023-06-04T03:39:03;11.10;72.80
6724;DHT22;3399;52.530;13.304;2023-06-04T03:41:30;11.00;72.70
6724;DHT22;3399;52.530;13.304;2023-06-04T03:43:55;11.00;73.20
6724;DHT22;3399;52.530;13.304;2023-06-04T03:46:21;11.00;73.60
6724;DHT22;3399;52.530;13.304;2023-06-04T03:48:46;10.80;74.00
6724;DHT22;3399;52.530;13.304;2023-06-04T03:51:11;10.80;74.60
6724;DHT22;3399;52.530;13.304;2023-06-04T03:53:37;10.90;75.30
6724;DHT22;3399;52.530;13.304;2023-06-04T03:56:03;10.90;76.20
6724;DHT22;3399;52.530;13.304;2023-06-04T03:58:28;10.90;77.30
6724;DHT22;3399;52.530;13.304;2023-06-04T04:00:54;11.00;77.70
6724;DHT22;3399;52.530;13.304;2023-06-04T04:03:19;10.90;77.30
6724;DHT22;3399;52.530;13.304;2023-06-04T04:05:45;10.80;78.10
6724;DHT22;3399;52.530;13.304;2023-06-04T04:08:11;10.90;79.00
6724;DHT22;3399;52.530;13.304;2023-06-04T04:10:37;10.90;79.10
6724;DHT22;3399;52.530;13.304;2023-06-04T04:13:02;11.00;80.60
6724;DHT22;3399;52.530;13.304;2023-06-04T04:15:28;11.00;79.90
6724;DHT22;3399;52.530;13.304;2023-06-04T04:17:55;11.10;82.20
6724;DHT22;3399;52.530;13.304;2023-06-04T04:20:20;11.10;81.10
6724;DHT22;3399;52.530;13.304;2023-06-04T04:22:46;11.10;81.20
6724;DHT22;3399;52.530;13.304;2023-06-04T04:25:11;11.20;80.80
6724;DHT22;3399;52.530;13.304;2023-06-04T04:27:37;11.20;81.80
6724;DHT22;3399;52.530;13.304;2023-06-04T04:30:06;11.30;82.40
6724;DHT22;3399;52.530;13.304;2023-06-04T04:32:32;11.30;82.10
6724;DHT22;3399;52.530;13.304;2023-06-04T04:34:57;11.30;84.40
6724;DHT22;3399;52.530;13.304;2023-06-04T04:37:24;11.30;82.80
6724;DHT22;3399;52.530;13.304;2023-06-04T04:39:49;11.40;82.30
6724;DHT22;3399;52.530;13.304;2023-06-04T04:42:17;11.40;82.40
6724;DHT22;3399;52.530;13.304;2023-06-04T04:44:43;11.50;82.50
6724;DHT22;3399;52.530;13.304;2023-06-04T04:47:13;11.50;83.70
6724;DHT22;3399;52.530;13.304;2023-06-04T04:49:38;11.60;85.10
6724;DHT22;3399;52.530;13.304;2023-06-04T04:52:04;11.60;84.40
6724;DHT22;3399;52.530;13.304;2023-06-04T04:54:29;11.60;83.40
6724;DHT22;3399;52.530;13.304;2023-06-04T04:56:55;11.60;85.00
6724;DHT22;3399;52.530;13.304;2023-06-04T04:59:20;11.60;84.40
6724;DHT22;3399;52.530;13.304;2023-06-04T05:01:46;11.70;84.40
6724;DHT22;3399;52.530;13.304;2023-06-04T05:04:11;11.70;85.50
6724;DHT22;3399;52.530;13.304;2023-06-04T05:06:37;11.80;84.80
6724;DHT22;3399;52.530;13.304;2023-06-04T05:09:03;11.90;85.10
6724;DHT22;3399;52.530;13.304;2023-06-04T05:11:29;12.00;84.40
6724;DHT22;3399;52.530;13.304;2023-06-04T05:13:55;12.10;84.20
6724;DHT22;3399;52.530;13.304;2023-06-04T05:16:20;12.20;83.80
6724;DHT22;3399;52.530;13.304;2023-06-04T05:18:48;12.30;83.70
6724;DHT22;3399;52.530;13.304;2023-06-04T05:21:16;12.50;83.70
6724;DHT22;3399;52.530;13.304;2023-06-04T05:23:42;12.50;83.80
6724;DHT22;3399;52.530;13.304;2023-06-04T05:26:10;12.60;85.30
6724;DHT22;3399;52.530;13.304;2023-06-04T05:28:36;12.60;85.30
6724;DHT22;3399;52.530;13.304;2023-06-04T05:31:01;12.70;84.20
6724;DHT22;3399;52.530;13.304;2023-06-04T05:33:28;12.80;83.00
6724;DHT22;3399;52.530;13.304;2023-06-04T05:35:55;12.80;82.10
6724;DHT22;3399;52.530;13.304;2023-06-04T05:38:23;12.90;82.40
6724;DHT22;3399;52.530;13.304;2023-06-04T05:40:51;12.90;82.00
6724;DHT22;3399;52.530;13.304;2023-06-04T05:43:17;13.00;82.40
6724;DHT22;3399;52.530;13.304;2023-06-04T05:45:43;13.10;82.40
6724;DHT22;3399;52.530;13.304;2023-06-04T05:48:08;13.20;81.30
6724;DHT22;3399;52.530;13.304;2023-06-04T05:50:34;13.40;80.10
6724;DHT22;3399;52.530;13.304;2023-06-04T05:52:59;13.40;79.90
6724;DHT22;3399;52.530;13.304;2023-06-04T05:55:25;13.50;80.00
6724;DHT22;3399;52.530;13.304;2023-06-04T05:57:51;13.60;77.80
6724;DHT22;3399;52.530;13.304;2023-06-04T06:00:17;13.60;77.80
6724;DHT22;3399;52.530;13.304;2023-06-04T06:02:43;13.80;77.50
6724;DHT22;3399;52.530;13.304;2023-06-04T06:05:08;14.00;77.90
6724;DHT22;3399;52.530;13.304;2023-06-04T06:07:34;14.10;76.20
6724;DHT22;3399;52.530;13.304;2023-06-04T06:10:00;14.10;76.30
6724;DHT22;3399;52.530;13.304;2023-06-04T06:12:26;14.30;75.50
6724;DHT22;3399;52.530;13.304;2023-06-04T06:14:52;14.50;75.60
6724;DHT22;3399;52.530;13.304;2023-06-04T06:17:17;14.60;76.40
6724;DHT22;3399;52.530;13.304;2023-06-04T06:19:42;14.60;77.10
6724;DHT22;3399;52.530;13.304;2023-06-04T06:22:08;14.50;75.40
6724;DHT22;3399;52.530;13.304;2023-06-04T06:24:34;14.60;74.50
6724;DHT22;3399;52.530;13.304;2023-06-04T06:26:59;14.70;76.00
6724;DHT22;3399;52.530;13.304;2023-06-04T06:29:25;14.80;73.90
6724;DHT22;3399;52.530;13.304;2023-06-04T06:31:50;15.00;73.10
6724;DHT22;3399;52.530;13.304;2023-06-04T06:34:16;15.00;73.80
6724;DHT22;3399;52.530;13.304;2023-06-04T06:36:41;15.10;74.00
6724;DHT22;3399;52.530;13.304;2023-06-04T06:39:08;15.10;74.10
6724;DHT22;3399;52.530;13.304;2023-06-04T06:41:34;15.20;70.80
6724;DHT22;3399;52.530;13.304;2023-06-04T06:44:00;15.20;70.50
6724;DHT22;3399;52.530;13.304;2023-06-04T06:46:25;15.30;67.20
6724;DHT22;3399;52.530;13.304;2023-06-04T06:48:51;15.60;65.20
6724;DHT22;3399;52.530;13.304;2023-06-04T06:51:16;15.80;64.20
6724;DHT22;3399;52.530;13.304;2023-06-04T06:53:43;16.00;62.00
6724;DHT22;3399;52.530;13.304;2023-06-04T06:56:08;16.10;64.30
6724;DHT22;3399;52.530;13.304;2023-06-04T06:58:34;16.10;61.20
6724;DHT22;3399;52.530;13.304;2023-06-04T07:01:00;16.10;58.10
6724;DHT22;3399;52.530;13.304;2023-06-04T07:03:25;16.10;58.40
6724;DHT22;3399;52.530;13.304;2023-06-04T07:05:51;16.20;58.90
6724;DHT22;3399;52.530;13.304;2023-06-04T07:08:17;16.20;59.20
6724;DHT22;3399;52.530;13.304;2023-06-04T07:10:43;16.50;58.20
6724;DHT22;3399;52.530;13.304;2023-06-04T07:13:08;16.70;56.80
6724;DHT22;3399;52.530;13.304;2023-06-04T07:15:34;16.80;56.70
6724;DHT22;3399;52.530;13.304;2023-06-04T07:17:59;16.80;57.20
6724;DHT22;3399;52.530;13.304;2023-06-04T07:20:25;16.80;57.00
6724;DHT22;3399;52.530;13.304;2023-06-04T07:22:50;16.90;55.50
6724;DHT22;3399;52.530;13.304;2023-06-04T07:25:16;16.90;54.30
6724;DHT22;3399;52.530;13.304;2023-06-04T07:27:42;17.10;55.10
6724;DHT22;3399;52.530;13.304;2023-06-04T07:30:08;17.10;54.00
6724;DHT22;3399;52.530;13.304;2023-06-04T07:32:34;17.20;53.90
6724;DHT22;3399;52.530;13.304;2023-06-04T07:34:59;17.20;51.60
6724;DHT22;3399;52.530;13.304;2023-06-04T07:37:25;17.40;50.90
6724;DHT22;3399;52.530;13.304;2023-06-04T07:39:50;17.40;51.90
6724;DHT22;3399;52.530;13.304;2023-06-04T07:42:16;17.40;49.60
6724;DHT22;3399;52.530;13.304;2023-06-04T07:44:41;17.40;48.30
6724;DHT22;3399;52.530;13.304;2023-06-04T07:47:07;17.50;50.00
6724;DHT22;3399;52.530;13.304;2023-06-04T07:49:32;17.50;50.50
6724;DHT22;3399;52.530;13.304;2023-06-04T07:51:57;17.50;51.00
6724;DHT22;3399;52.530;13.304;2023-06-04T07:54:23;17.50;50.00
6724;DHT22;3399;52.530;13.304;2023-06-04T07:56:49;17.50;49.40
6724;DHT22;3399;52.530;13.304;2023-06-04T07:59:14;17.60;48.90
6724;DHT22;3399;52.530;13.304;2023-06-04T08:01:40;17.60;50.10
6724;DHT22;3399;52.530;13.304;2023-06-04T08:04:05;17.70;49.00
6724;DHT22;3399;52.530;13.304;2023-06-04T08:06:31;17.70;48.40
6724;DHT22;3399;52.530;13.304;2023-06-04T08:08:57;17.90;49.10
6724;DHT22;3399;52.530;13.304;2023-06-04T08:11:22;18.00;50.90
6724;DHT22;3399;52.530;13.304;2023-06-04T08:13:50;17.90;50.20
6724;DHT22;3399;52.530;13.304;2023-06-04T08:16:16;17.80;51.00
6724;DHT22;3399;52.530;13.304;2023-06-04T08:18:42;17.80;50.90
6724;DHT22;3399;52.530;13.304;2023-06-04T08:21:11;17.80;50.20
6724;DHT22;3399;52.530;13.304;2023-06-04T08:23:37;18.00;48.70
6724;DHT22;3399;52.530;13.304;2023-06-04T08:26:03;18.00;49.10
6724;DHT22;3399;52.530;13.304;2023-06-04T08:28:28;18.10;48.50
6724;DHT22;3399;52.530;13.304;2023-06-04T08:30:54;18.20;46.40
6724;DHT22;3399;52.530;13.304;2023-06-04T08:33:19;18.30;47.00
6724;DHT22;3399;52.530;13.304;2023-06-04T08:35:45;18.40;48.70
6724;DHT22;3399;52.530;13.304;2023-06-04T08:38:10;18.40;47.90
6724;DHT22;3399;52.530;13.304;2023-06-04T08:40:36;18.40;48.10
6724;DHT22;3399;52.530;13.304;2023-06-04T08:43:01;18.30;47.90
6724;DHT22;3399;52.530;13.304;2023-06-04T08:45:27;18.30;48.00
6724;DHT22;3399;52.530;13.304;2023-06-04T08:47:56;18.40;46.80
6724;DHT22;3399;52.530;13.304;2023-06-04T08:50:23;18.40;48.60
6724;DHT22;3399;52.530;13.304;2023-06-04T08:52:54;18.40;47.20
6724;DHT22;3399;52.530;13.304;2023-06-04T08:55:20;18.70;45.00
6724;DHT22;3399;52.530;13.304;2023-06-04T08:57:47;18.90;44.70
6724;DHT22;3399;52.530;13.304;2023-06-04T09:00:14;18.90;45.90
6724;DHT22;3399;52.530;13.304;2023-06-04T09:02:41;18.90;45.20
6724;DHT22;3399;52.530;13.304;2023-06-04T09:05:07;18.90;45.30
6724;DHT22;3399;52.530;13.304;2023-06-04T09:07:36;19.00;44.60
6724;DHT22;3399;52.530;13.304;2023-06-04T09:10:05;18.90;44.50
6724;DHT22;3399;52.530;13.304;2023-06-04T09:12:32;18.90;45.80
6724;DHT22;3399;52.530;13.304;2023-06-04T09:15:00;18.90;46.30
6724;DHT22;3399;52.530;13.304;2023-06-04T09:17:27;18.90;46.70
6724;DHT22;3399;52.530;13.304;2023-06-04T09:19:53;18.90;44.60
6724;DHT22;3399;52.530;13.304;2023-06-04T09:22:19;18.90;43.80
6724;DHT22;3399;52.530;13.304;2023-06-04T09:24:46;18.90;43.60
6724;DHT22;3399;52.530;13.304;2023-06-04T09:27:13;19.20;44.70
6724;DHT22;3399;52.530;13.304;2023-06-04T09:29:40;19.40;44.90
6724;DHT22;3399;52.530;13.304;2023-06-04T09:32:05;19.50;44.40
6724;DHT22;3399;52.530;13.304;2023-06-04T09:34:31;19.50;44.00
6724;DHT22;3399;52.530;13.304;2023-06-04T09:36:57;19.40;43.80
6724;DHT22;3399;52.530;13.304;2023-06-04T09:39:23;19.60;43.30
6724;DHT22;3399;52.530;13.304;2023-06-04T09:42:07;19.80;42.00
6724;DHT22;3399;52.530;13.304;2023-06-04T09:44:43;19.90;43.10
6724;DHT22;3399;52.530;13.304;2023-06-04T09:47:09;19.90;43.40
6724;DHT22;3399;52.530;13.304;2023-06-04T09:49:45;20.00;42.10
6724;DHT22;3399;52.530;13.304;2023-06-04T09:52:11;20.00;41.90
6724;DHT22;3399;52.530;13.304;2023-06-04T09:54:39;20.20;42.60
6724;DHT22;3399;52.530;13.304;2023-06-04T09:57:15;20.20;42.80
6724;DHT22;3399;52.530;13.304;2023-06-04T09:59:44;20.30;42.20
6724;DHT22;3399;52.530;13.304;2023-06-04T10:02:11;20.40;42.60
6724;DHT22;3399;52.530;13.304;2023-06-04T10:04:42;20.50;42.50
6724;DHT22;3399;52.530;13.304;2023-06-04T10:07:11;20.60;42.30
6724;DHT22;3399;52.530;13.304;2023-06-04T10:09:43;20.60;41.00
6724;DHT22;3399;52.530;13.304;2023-06-04T10:12:13;20.70;40.30
6724;DHT22;3399;52.530;13.304;2023-06-04T10:14:56;20.70;42.30
6724;DHT22;3399;52.530;13.304;2023-06-04T10:17:23;20.60;42.50
6724;DHT22;3399;52.530;13.304;2023-06-04T10:19:51;20.60;42.30
6724;DHT22;3399;52.530;13.304;2023-06-04T10:22:22;20.60;41.10
6724;DHT22;3399;52.530;13.304;2023-06-04T10:24:48;20.60;41.10
6724;DHT22;3399;52.530;13.304;2023-06-04T10:27:14;20.70;40.20
6724;DHT22;3399;52.530;13.304;2023-06-04T10:29:42;20.80;39.10
6724;DHT22;3399;52.530;13.304;2023-06-04T10:32:08;21.00;41.20
6724;DHT22;3399;52.530;13.304;2023-06-04T10:34:34;21.00;40.60
6724;DHT22;3399;52.530;13.304;2023-06-04T10:37:00;21.10;41.80
6724;DHT22;3399;52.530;13.304;2023-06-04T10:39:31;21.40;38.80
6724;DHT22;3399;52.530;13.304;2023-06-04T10:42:01;21.40;38.50
6724;DHT22;3399;52.530;13.304;2023-06-04T10:44:28;21.30;38.80
6724;DHT22;3399;52.530;13.304;2023-06-04T10:46:54;21.20;38.20
6724;DHT22;3399;52.530;13.304;2023-06-04T10:49:27;21.10;38.90
6724;DHT22;3399;52.530;13.304;2023-06-04T10:51:53;21.10;40.90
6724;DHT22;3399;52.530;13.304;2023-06-04T10:54:24;21.00;39.40
6724;DHT22;3399;52.530;13.304;2023-06-04T10:56:51;21.10;40.80
6724;DHT22;3399;52.530;13.304;2023-06-04T10:59:18;21.40;39.50
6724;DHT22;3399;52.530;13.304;2023-06-04T11:01:44;21.60;38.30
6724;DHT22;3399;52.530;13.304;2023-06-04T11:04:23;22.00;38.00
6724;DHT22;3399;52.530;13.304;2023-06-04T11:07:03;22.20;38.30
6724;DHT22;3399;52.530;13.304;2023-06-04T11:09:30;22.00;38.60
6724;DHT22;3399;52.530;13.304;2023-06-04T11:11:59;22.00;39.00
6724;DHT22;3399;52.530;13.304;2023-06-04T11:14:25;22.10;38.30
6724;DHT22;3399;52.530;13.304;2023-06-04T11:16:51;22.60;37.40
6724;DHT22;3399;52.530;13.304;2023-06-04T11:19:16;22.90;38.30
6724;DHT22;3399;52.530;13.304;2023-06-04T11:21:43;22.90;38.00
6724;DHT22;3399;52.530;13.304;2023-06-04T11:24:09;23.10;37.40
6724;DHT22;3399;52.530;13.304;2023-06-04T11:26:35;23.30;36.40
6724;DHT22;3399;52.530;13.304;2023-06-04T11:29:06;23.30;35.90
6724;DHT22;3399;52.530;13.304;2023-06-04T11:31:45;23.00;36.30
6724;DHT22;3399;52.530;13.304;2023-06-04T11:34:23;22.80;36.50
6724;DHT22;3399;52.530;13.304;2023-06-04T11:36:48;23.10;35.40
6724;DHT22;3399;52.530;13.304;2023-06-04T11:39:15;23.40;34.90
6724;DHT22;3399;52.530;13.304;2023-06-04T11:41:41;23.40;38.60
6724;DHT22;3399;52.530;13.304;2023-06-04T11:44:07;23.40;39.60
6724;DHT22;3399;52.530;13.304;2023-06-04T11:46:35;23.50;36.80
6724;DHT22;3399;52.530;13.304;2023-06-04T11:49:02;23.80;40.00
6724;DHT22;3399;52.530;13.304;2023-06-04T11:51:28;23.70;36.80
6724;DHT22;3399;52.530;13.304;2023-06-04T11:53:54;23.70;40.60
6724;DHT22;3399;52.530;13.304;2023-06-04T11:56:20;23.70;40.60
6724;DHT22;3399;52.530;13.304;2023-06-04T11:58:46;23.80;38.80
6724;DHT22;3399;52.530;13.304;2023-06-04T12:01:12;23.70;36.30
6724;DHT22;3399;52.530;13.304;2023-06-04T12:03:42;23.70;39.80
6724;DHT22;3399;52.530;13.304;2023-06-04T12:06:18;24.00;38.40
6724;DHT22;3399;52.530;13.304;2023-06-04T12:08:52;24.60;37.90
6724;DHT22;3399;52.530;13.304;2023-06-04T12:14:03;24.40;38.80
6724;DHT22;3399;52.530;13.304;2023-06-04T12:16:29;24.60;34.90
6724;DHT22;3399;52.530;13.304;2023-06-04T12:19:24;25.00;33.50
6724;DHT22;3399;52.530;13.304;2023-06-04T12:22:06;25.00;37.60
6724;DHT22;3399;52.530;13.304;2023-06-04T12:24:34;24.90;36.30
6724;DHT22;3399;52.530;13.304;2023-06-04T12:27:06;24.90;37.30
6724;DHT22;3399;52.530;13.304;2023-06-04T12:29:32;24.70;37.30
6724;DHT22;3399;52.530;13.304;2023-06-04T12:32:06;24.70;37.30
6724;DHT22;3399;52.530;13.304;2023-06-04T12:34:35;24.60;36.90
6724;DHT22;3399;52.530;13.304;2023-06-04T12:37:01;24.70;36.70
6724;DHT22;3399;52.530;13.304;2023-06-04T12:39:28;24.80;38.20
6724;DHT22;3399;52.530;13.304;2023-06-04T12:41:55;25.00;34.50
6724;DHT22;3399;52.530;13.304;2023-06-04T12:44:20;25.30;38.70
6724;DHT22;3399;52.530;13.304;2023-06-04T12:46:46;25.50;38.20
6724;DHT22;3399;52.530;13.304;2023-06-04T12:49:12;25.60;34.00
6724;DHT22;3399;52.530;13.304;2023-06-04T12:51:37;25.60;34.00
6724;DHT22;3399;52.530;13.304;2023-06-04T12:54:04;25.70;35.00
6724;DHT22;3399;52.530;13.304;2023-06-04T12:56:30;25.80;32.20
6724;DHT22;3399;52.530;13.304;2023-06-04T12:58:56;26.10;35.30
6724;DHT22;3399;52.530;13.304;2023-06-04T13:01:21;25.60;33.10
6724;DHT22;3399;52.530;13.304;2023-06-04T13:03:47;25.60;33.90
6724;DHT22;3399;52.530;13.304;2023-06-04T13:06:12;25.70;34.70
6724;DHT22;3399;52.530;13.304;2023-06-04T13:08:38;25.70;37.90
6724;DHT22;3399;52.530;13.304;2023-06-04T13:11:04;25.40;34.00
6724;DHT22;3399;52.530;13.304;2023-06-04T13:13:30;25.40;33.10
6724;DHT22;3399;52.530;13.304;2023-06-04T13:15:56;25.60;37.50
6724;DHT22;3399;52.530;13.304;2023-06-04T13:18:22;25.80;34.80
6724;DHT22;3399;52.530;13.304;2023-06-04T13:20:47;25.90;35.70
6724;DHT22;3399;52.530;13.304;2023-06-04T13:23:14;26.00;32.80
6724;DHT22;3399;52.530;13.304;2023-06-04T13:25:40;26.20;34.50
6724;DHT22;3399;52.530;13.304;2023-06-04T13:28:05;26.00;36.90
6724;DHT22;3399;52.530;13.304;2023-06-04T13:30:31;25.80;36.90
6724;DHT22;3399;52.530;13.304;2023-06-04T13:32:57;25.90;38.40
6724;DHT22;3399;52.530;13.304;2023-06-04T13:35:26;26.20;32.20
6724;DHT22;3399;52.530;13.304;2023-06-04T13:37:51;25.30;32.80
6724;DHT22;3399;52.530;13.304;2023-06-04T13:40:17;25.10;32.30
6724;DHT22;3399;52.530;13.304;2023-06-04T13:42:42;25.90;32.90
6724;DHT22;3399;52.530;13.304;2023-06-04T13:45:09;26.80;29.70
6724;DHT22;3399;52.530;13.304;2023-06-04T13:47:34;27.10;29.80
6724;DHT22;3399;52.530;13.304;2023-06-04T13:50:00;27.20;28.90
6724;DHT22;3399;52.530;13.304;2023-06-04T13:52:26;27.50;29.50
6724;DHT22;3399;52.530;13.304;2023-06-04T13:54:54;27.20;29.70
6724;DHT22;3399;52.530;13.304;2023-06-04T13:57:20;27.00;33.80
6724;DHT22;3399;52.530;13.304;2023-06-04T13:59:46;26.90;32.20
6724;DHT22;3399;52.530;13.304;2023-06-04T14:02:11;27.10;29.70
6724;DHT22;3399;52.530;13.304;2023-06-04T14:04:37;26.70;32.70
6724;DHT22;3399;52.530;13.304;2023-06-04T14:07:02;26.60;30.10
6724;DHT22;3399;52.530;13.304;2023-06-04T14:09:28;26.90;33.40
6724;DHT22;3399;52.530;13.304;2023-06-04T14:11:53;26.90;32.40
6724;DHT22;3399;52.530;13.304;2023-06-04T14:14:22;26.90;35.40
6724;DHT22;3399;52.530;13.304;2023-06-04T14:16:47;26.90;32.00
6724;DHT22;3399;52.530;13.304;2023-06-04T14:19:14;27.00;33.00
6724;DHT22;3399;52.530;13.304;2023-06-04T14:21:40;27.00;33.90
6724;DHT22;3399;52.530;13.304;2023-06-04T14:24:06;27.20;31.70
6724;DHT22;3399;52.530;13.304;2023-06-04T14:26:34;27.30;32.20
6724;DHT22;3399;52.530;13.304;2023-06-04T14:29:00;27.20;33.30
6724;DHT22;3399;52.530;13.304;2023-06-04T14:31:27;27.10;36.80
6724;DHT22;3399;52.530;13.304;2023-06-04T14:33:53;27.20;32.70
6724;DHT22;3399;52.530;13.304;2023-06-04T14:36:18;27.00;30.60
6724;DHT22;3399;52.530;13.304;2023-06-04T14:38:44;27.20;31.20
6724;DHT22;3399;52.530;13.304;2023-06-04T14:41:10;27.20;34.10
6724;DHT22;3399;52.530;13.304;2023-06-04T14:43:36;27.20;33.00
6724;DHT22;3399;52.530;13.304;2023-06-04T14:46:01;27.20;34.10
6724;DHT22;3399;52.530;13.304;2023-06-04T14:48:27;27.50;33.60
6724;DHT22;3399;52.530;13.304;2023-06-04T14:50:52;27.40;31.20
6724;DHT22;3399;52.530;13.304;2023-06-04T14:53:19;27.80;34.70
6724;DHT22;3399;52.530;13.304;2023-06-04T14:55:45;28.00;30.80
6724;DHT22;3399;52.530;13.304;2023-06-04T14:58:14;27.90;34.00
6724;DHT22;3399;52.530;13.304;2023-06-04T15:00:41;27.60;34.60
6724;DHT22;3399;52.530;13.304;2023-06-04T15:03:07;27.50;32.00
6724;DHT22;3399;52.530;13.304;2023-06-04T15:05:33;27.70;30.60
6724;DHT22;3399;52.530;13.304;2023-06-04T15:07:59;27.80;32.30
6724;DHT22;3399;52.530;13.304;2023-06-04T15:10:25;27.80;31.80
6724;DHT22;3399;52.530;13.304;2023-06-04T15:12:54;27.60;28.90
6724;DHT22;3399;52.530;13.304;2023-06-04T15:15:20;27.50;35.10
6724;DHT22;3399;52.530;13.304;2023-06-04T15:17:45;27.10;33.60
6724;DHT22;3399;52.530;13.304;2023-06-04T15:20:11;27.10;33.00
6724;DHT22;3399;52.530;13.304;2023-06-04T15:22:37;27.50;34.70
6724;DHT22;3399;52.530;13.304;2023-06-04T15:25:03;27.40;33.80
6724;DHT22;3399;52.530;13.304;2023-06-04T15:27:28;27.30;34.10
6724;DHT22;3399;52.530;13.304;2023-06-04T15:29:54;27.30;34.70
6724;DHT22;3399;52.530;13.304;2023-06-04T15:32:20;27.50;32.70
6724;DHT22;3399;52.530;13.304;2023-06-04T15:34:46;27.70;32.10
6724;DHT22;3399;52.530;13.304;2023-06-04T15:37:12;27.60;33.40
6724;DHT22;3399;52.530;13.304;2023-06-04T15:39:37;27.70;34.00
6724;DHT22;3399;52.530;13.304;2023-06-04T15:42:03;27.60;33.10
6724;DHT22;3399;52.530;13.304;2023-06-04T15:44:28;27.70;33.50
6724;DHT22;3399;52.530;13.304;2023-06-04T15:46:54;27.60;33.90
6724;DHT22;3399;52.530;13.304;2023-06-04T15:49:19;27.40;32.50